Time;durP1;ratioP1;P1;durP2;ratioP2;P2;SDS_P1;SDS_P2;PMS_P1;PMS_P2;Temp;Humidity;BMP_temperature;BMP_pressure;BME280_temperature;BME280_humidity;BME280_pressure;Samples;Min_cycle;Max_cycle;Signal;HPM_P1;HPM_P2
2023/05/31 00:01:24;;;;;;;1.90;1.05;;;17.70;56.10;;;;;;5055661;28;20029;-78
2023/05/31 00:03:49;;;;;;;2.28;0.93;;;17.70;56.50;;;;;;5057625;28;20049;-78
2023/05/31 00:06:15;;;;;;;2.40;0.90;;;17.70;56.70;;;;;;5085926;28;20112;-77
2023/05/31 00:08:41;;;;;;;5.30;0.90;;;17.70;57.00;;;;;;5064321;28;20127;-78
2023/05/31 00:11:07;;;;;;;2.05;0.80;;;17.70;57.30;;;;;;5062124;28;20029;-78
2023/05/31 00:13:33;;;;;;;4.22;1.00;;;17.70;57.30;;;;;;5070662;28;20085;-75
2023/05/31 00:15:59;;;;;;;3.00;1.10;;;17.60;57.40;;;;;;5070804;28;20033;-75
2023/05/31 00:18:24;;;;;;;2.03;1.05;;;17.60;57.40;;;;;;5053654;28;20021;-76
2023/05/31 00:20:50;;;;;;;2.38;0.98;;;17.60;57.50;;;;;;5065075;28;20032;-76
2023/05/31 00:23:16;;;;;;;2.33;1.23;;;17.60;58.00;;;;;;5074224;28;20123;-76
2023/05/31 00:25:41;;;;;;;4.47;1.27;;;17.60;58.30;;;;;;5056668;28;20078;-75
2023/05/31 00:28:07;;;;;;;2.33;1.23;;;17.60;58.20;;;;;;5071547;28;20025;-76
2023/05/31 00:30:33;;;;;;;3.75;1.13;;;17.50;58.60;;;;;;5065430;28;20028;-75
2023/05/31 00:32:58;;;;;;;3.65;1.10;;;17.50;58.70;;;;;;5065133;28;20083;-77
2023/05/31 00:35:24;;;;;;;3.22;1.17;;;17.40;58.70;;;;;;5064094;28;20378;-79
2023/05/31 00:37:50;;;;;;;2.67;0.80;;;17.50;58.70;;;;;;5063383;28;20057;-77
2023/05/31 00:40:15;;;;;;;2.97;0.85;;;17.50;59.40;;;;;;5065452;28;20032;-78
2023/05/31 00:42:41;;;;;;;3.33;0.98;;;17.50;59.10;;;;;;5065129;28;20029;-78
2023/05/31 00:45:07;;;;;;;3.72;0.90;;;17.50;58.80;;;;;;5066366;28;20043;-77
2023/05/31 00:47:34;;;;;;;1.88;1.08;;;17.50;59.00;;;;;;5063500;28;20079;-78
2023/05/31 00:50:00;;;;;;;3.72;0.98;;;17.50;59.30;;;;;;5059197;28;20051;-78
2023/05/31 00:52:28;;;;;;;3.00;0.90;;;17.40;59.10;;;;;;5067052;28;20057;-76
2023/05/31 00:54:54;;;;;;;1.85;0.82;;;17.40;59.20;;;;;;5064001;28;20131;-75
2023/05/31 00:57:20;;;;;;;3.40;1.08;;;17.40;59.40;;;;;;5065489;28;20476;-75
2023/05/31 00:59:46;;;;;;;1.77;0.93;;;17.40;59.40;;;;;;5062298;28;20024;-75
2023/05/31 01:02:12;;;;;;;4.22;1.08;;;17.40;59.50;;;;;;5062946;28;20399;-76
2023/05/31 01:04:39;;;;;;;5.18;1.52;;;17.30;59.60;;;;;;5063124;28;20102;-76
2023/05/31 01:07:08;;;;;;;2.13;0.90;;;17.30;59.70;;;;;;5069157;28;20025;-77
2023/05/31 01:09:35;;;;;;;2.70;1.10;;;17.30;59.80;;;;;;5062366;28;20025;-77
2023/05/31 01:12:15;;;;;;;4.53;1.20;;;17.30;60.20;;;;;;5063254;28;20128;-77
2023/05/31 01:15:10;;;;;;;5.27;1.10;;;17.30;60.40;;;;;;5067443;28;20417;-75
2023/05/31 01:18:09;;;;;;;3.10;1.00;;;17.30;60.00;;;;;;5067773;28;20102;-75
2023/05/31 01:20:37;;;;;;;3.05;1.00;;;17.30;60.60;;;;;;5070889;28;20055;-75
2023/05/31 01:23:21;;;;;;;2.88;1.33;;;17.20;60.40;;;;;;5074640;28;20032;-75
2023/05/31 01:25:52;;;;;;;4.55;1.15;;;17.20;60.40;;;;;;5072724;28;20119;-75
2023/05/31 01:28:18;;;;;;;3.20;0.95;;;17.20;60.40;;;;;;5067347;28;20028;-75
2023/05/31 01:30:47;;;;;;;3.92;1.08;;;17.20;60.50;;;;;;5052606;28;20036;-75
2023/05/31 01:33:15;;;;;;;1.83;0.98;;;17.10;61.20;;;;;;5054410;28;20032;-75
2023/05/31 01:35:40;;;;;;;4.95;0.90;;;17.10;60.90;;;;;;5053829;28;20028;-76
2023/05/31 01:38:06;;;;;;;4.70;1.20;;;17.00;61.10;;;;;;5064636;28;20032;-75
2023/05/31 01:40:34;;;;;;;3.30;1.33;;;17.00;61.40;;;;;;5089083;28;20025;-75
2023/05/31 01:43:00;;;;;;;2.75;1.08;;;17.00;61.40;;;;;;5072679;28;20478;-75
2023/05/31 01:45:27;;;;;;;4.93;1.10;;;16.90;61.60;;;;;;5072457;28;20039;-77
2023/05/31 01:47:56;;;;;;;7.78;1.60;;;16.80;62.10;;;;;;5074042;28;20508;-75
2023/05/31 01:50:23;;;;;;;4.18;1.05;;;16.80;62.10;;;;;;5072542;28;20473;-75
2023/05/31 01:52:49;;;;;;;1.95;0.80;;;16.80;61.80;;;;;;5071504;28;20039;-75
2023/05/31 01:55:14;;;;;;;3.30;0.95;;;16.80;62.10;;;;;;5072260;28;20024;-75
2023/05/31 01:57:43;;;;;;;3.03;1.10;;;16.80;62.60;;;;;;5073066;28;20469;-75
2023/05/31 02:00:12;;;;;;;2.90;1.17;;;16.70;62.60;;;;;;5072730;28;20024;-75
2023/05/31 02:02:42;;;;;;;1.73;1.00;;;16.70;62.80;;;;;;5071376;28;20457;-75
2023/05/31 02:05:11;;;;;;;4.03;0.90;;;16.70;63.00;;;;;;5089183;28;20043;-75
2023/05/31 02:07:41;;;;;;;3.80;0.95;;;16.60;63.00;;;;;;5071655;28;20031;-75
2023/05/31 02:10:07;;;;;;;2.17;1.00;;;16.60;63.10;;;;;;5072270;28;20024;-75
2023/05/31 02:12:33;;;;;;;1.80;0.95;;;16.50;63.30;;;;;;5071668;28;20085;-76
2023/05/31 02:14:59;;;;;;;3.88;1.10;;;16.60;63.30;;;;;;5088782;28;20028;-74
2023/05/31 02:17:25;;;;;;;2.78;1.10;;;16.50;63.20;;;;;;5073081;28;20021;-75
2023/05/31 02:19:51;;;;;;;1.88;1.15;;;16.50;63.50;;;;;;5071405;28;20036;-74
2023/05/31 02:22:17;;;;;;;3.75;1.52;;;16.40;63.40;;;;;;5088749;28;20064;-75
2023/05/31 02:24:43;;;;;;;5.35;1.10;;;16.40;63.90;;;;;;5071418;28;20036;-75
2023/05/31 02:27:09;;;;;;;3.88;1.25;;;16.40;64.50;;;;;;5061397;28;20021;-75
2023/05/31 02:29:35;;;;;;;3.78;1.00;;;16.40;63.80;;;;;;5052683;28;20374;-75
2023/05/31 02:32:01;;;;;;;1.88;0.93;;;16.40;63.80;;;;;;5051801;28;20028;-75
2023/05/31 02:34:27;;;;;;;2.90;1.08;;;16.30;63.90;;;;;;5052887;28;20035;-75
2023/05/31 02:36:53;;;;;;;6.22;1.58;;;16.30;63.90;;;;;;5059537;28;20028;-75
2023/05/31 02:39:19;;;;;;;3.05;1.10;;;16.30;63.90;;;;;;5060950;28;20135;-75
2023/05/31 02:41:45;;;;;;;1.90;0.98;;;16.30;64.20;;;;;;5052469;28;20029;-75
2023/05/31 02:44:10;;;;;;;3.28;1.15;;;16.20;64.90;;;;;;5053061;28;20433;-76
2023/05/31 02:46:36;;;;;;;2.78;1.40;;;16.30;64.50;;;;;;5068535;28;20021;-76
2023/05/31 02:49:02;;;;;;;3.08;1.00;;;16.20;64.50;;;;;;5051829;28;20025;-76
2023/05/31 02:51:28;;;;;;;4.88;1.20;;;16.20;64.60;;;;;;5053049;28;20056;-76
2023/05/31 02:53:53;;;;;;;2.67;1.10;;;16.10;64.80;;;;;;5051774;28;20363;-76
2023/05/31 02:56:20;;;;;;;2.63;1.05;;;16.20;64.60;;;;;;5053518;28;20102;-76
2023/05/31 02:58:46;;;;;;;2.47;1.00;;;16.20;65.00;;;;;;5068535;28;20025;-76
2023/05/31 03:01:11;;;;;;;2.63;1.27;;;16.20;64.80;;;;;;5053671;28;20087;-76
2023/05/31 03:03:37;;;;;;;6.53;1.88;;;16.20;65.00;;;;;;5051307;28;20524;-76
2023/05/31 03:06:04;;;;;;;3.17;0.90;;;16.20;65.10;;;;;;5052710;28;20061;-75
2023/05/31 03:08:30;;;;;;;3.45;1.42;;;16.10;65.00;;;;;;5053421;28;20022;-76
2023/05/31 03:10:56;;;;;;;4.15;1.20;;;16.20;65.10;;;;;;5052449;28;20025;-76
2023/05/31 03:13:22;;;;;;;3.72;1.17;;;16.20;64.80;;;;;;5053128;28;20055;-76
2023/05/31 03:15:47;;;;;;;4.05;1.00;;;16.20;64.70;;;;;;5052001;28;20064;-77
2023/05/31 03:18:13;;;;;;;4.22;1.10;;;16.20;65.20;;;;;;5053301;28;20055;-77
2023/05/31 03:20:39;;;;;;;3.80;1.30;;;16.10;65.00;;;;;;5052072;28;20025;-76
2023/05/31 03:23:06;;;;;;;2.63;1.05;;;16.10;65.30;;;;;;5053261;28;20037;-77
2023/05/31 03:25:32;;;;;;;2.28;0.90;;;16.10;65.30;;;;;;5053305;28;20029;-78
2023/05/31 03:27:57;;;;;;;7.18;1.50;;;16.10;65.10;;;;;;5053412;28;20423;-76
2023/05/31 03:30:23;;;;;;;3.22;1.20;;;16.10;65.60;;;;;;5053207;28;20056;-76
2023/05/31 03:32:49;;;;;;;3.80;1.10;;;16.10;65.60;;;;;;5051862;28;20486;-76
2023/05/31 03:35:14;;;;;;;3.75;1.20;;;16.10;65.40;;;;;;5068620;28;20032;-76
2023/05/31 03:37:40;;;;;;;2.38;1.20;;;16.10;65.40;;;;;;5068279;28;20033;-78
2023/05/31 03:40:06;;;;;;;2.60;1.08;;;16.00;65.50;;;;;;5073120;28;20033;-76
2023/05/31 03:42:32;;;;;;;1.67;1.20;;;16.00;65.80;;;;;;5071796;28;20389;-78
2023/05/31 03:44:58;;;;;;;3.70;1.25;;;16.00;65.80;;;;;;5072163;28;20024;-76
2023/05/31 03:47:23;;;;;;;3.38;1.30;;;16.00;66.00;;;;;;5073156;28;20381;-76
2023/05/31 03:49:49;;;;;;;4.78;1.38;;;16.00;65.80;;;;;;5071319;28;20025;-76
2023/05/31 03:52:15;;;;;;;2.03;1.08;;;15.90;66.00;;;;;;5072877;28;20030;-76
2023/05/31 03:54:40;;;;;;;2.72;1.13;;;15.90;66.50;;;;;;5072810;28;20024;-76
2023/05/31 03:57:06;;;;;;;3.17;1.30;;;15.90;67.00;;;;;;5072937;28;20032;-75
2023/05/31 03:59:33;;;;;;;1.95;1.00;;;15.90;66.70;;;;;;5072677;28;20029;-76
2023/05/31 04:01:59;;;;;;;2.95;1.10;;;16.00;66.60;;;;;;5073742;28;20127;-75
2023/05/31 04:04:25;;;;;;;3.95;1.30;;;15.90;66.70;;;;;;5076595;28;20025;-75
2023/05/31 04:06:52;;;;;;;3.40;1.20;;;15.90;67.10;;;;;;5075589;28;20082;-76
2023/05/31 04:09:17;;;;;;;2.45;0.95;;;15.90;66.70;;;;;;5074728;28;20103;-75
2023/05/31 04:11:43;;;;;;;2.67;1.20;;;15.80;67.30;;;;;;5075517;28;20059;-76
2023/05/31 04:14:09;;;;;;;5.18;1.42;;;15.80;67.40;;;;;;5091658;28;20024;-75
2023/05/31 04:16:34;;;;;;;4.05;1.20;;;15.80;67.20;;;;;;5074110;28;20025;-79
2023/05/31 04:19:00;;;;;;;5.65;1.38;;;15.80;67.50;;;;;;5074577;28;20040;-75
2023/05/31 04:21:26;;;;;;;3.28;1.10;;;15.80;67.80;;;;;;5091340;28;20036;-75
2023/05/31 04:23:52;;;;;;;4.97;1.35;;;15.80;68.30;;;;;;5075378;28;20458;-75
2023/05/31 04:26:18;;;;;;;5.72;1.15;;;15.80;67.80;;;;;;5074442;28;20032;-75
2023/05/31 04:28:44;;;;;;;2.88;1.50;;;15.80;67.70;;;;;;5075135;28;20024;-76
2023/05/31 04:31:11;;;;;;;2.83;1.23;;;15.80;68.00;;;;;;5091675;28;20119;-76
2023/05/31 04:33:37;;;;;;;3.83;1.30;;;15.70;68.10;;;;;;5074647;28;20058;-77
2023/05/31 04:36:04;;;;;;;3.78;1.05;;;15.80;68.30;;;;;;5057940;28;20526;-76
2023/05/31 04:38:32;;;;;;;2.55;1.25;;;15.80;68.70;;;;;;5054169;28;20021;-75
2023/05/31 04:40:57;;;;;;;4.65;1.40;;;15.80;68.10;;;;;;5054037;28;20048;-75
2023/05/31 04:43:25;;;;;;;7.22;1.55;;;15.80;68.30;;;;;;5055646;28;20458;-76
2023/05/31 04:45:52;;;;;;;3.97;1.35;;;15.90;68.70;;;;;;5054901;28;20029;-75
2023/05/31 04:48:19;;;;;;;6.38;1.23;;;15.90;68.00;;;;;;5054288;28;20462;-75
2023/05/31 04:50:46;;;;;;;4.30;1.23;;;15.90;68.40;;;;;;5054664;28;20032;-75
2023/05/31 04:53:12;;;;;;;2.63;1.20;;;15.90;68.90;;;;;;5055228;28;20036;-75
2023/05/31 04:55:38;;;;;;;3.78;1.40;;;16.00;68.80;;;;;;5053563;28;20474;-74
2023/05/31 04:58:04;;;;;;;6.53;1.60;;;16.00;69.30;;;;;;5054304;28;20061;-75
2023/05/31 05:00:29;;;;;;;6.47;1.50;;;16.00;69.10;;;;;;5055181;28;20025;-75
2023/05/31 05:02:56;;;;;;;3.95;1.40;;;16.00;68.30;;;;;;5058170;28;20044;-76
2023/05/31 05:05:23;;;;;;;3.05;1.17;;;16.00;68.60;;;;;;5075647;28;20031;-75
2023/05/31 05:07:49;;;;;;;4.28;1.13;;;16.00;68.70;;;;;;5073683;28;20025;-75
2023/05/31 05:10:15;;;;;;;5.20;1.48;;;16.00;69.60;;;;;;5074171;28;20020;-75
2023/05/31 05:12:40;;;;;;;4.00;1.00;;;16.00;69.40;;;;;;5072253;28;20461;-75
2023/05/31 05:15:07;;;;;;;6.38;1.27;;;16.00;68.50;;;;;;5073391;28;20070;-75
2023/05/31 05:17:33;;;;;;;2.50;1.38;;;16.10;68.90;;;;;;5073713;28;20416;-75
2023/05/31 05:19:59;;;;;;;2.88;1.20;;;16.10;68.90;;;;;;5071321;28;20078;-75
2023/05/31 05:22:24;;;;;;;5.78;1.42;;;16.20;69.20;;;;;;5054319;28;20029;-75
2023/05/31 05:24:50;;;;;;;3.88;1.20;;;16.20;68.80;;;;;;5068892;28;20021;-75
2023/05/31 05:27:16;;;;;;;3.05;1.10;;;16.20;69.00;;;;;;5074470;28;20381;-74
2023/05/31 05:29:41;;;;;;;3.10;1.27;;;16.20;68.30;;;;;;5072748;28;20032;-76
2023/05/31 05:32:07;;;;;;;3.97;1.38;;;16.20;68.70;;;;;;5083873;28;20481;-74
2023/05/31 05:34:33;;;;;;;2.97;1.10;;;16.30;68.50;;;;;;5052566;28;20444;-74
2023/05/31 05:36:58;;;;;;;6.22;1.38;;;16.30;68.30;;;;;;5053438;28;20310;-75
2023/05/31 05:39:24;;;;;;;4.40;1.13;;;16.30;68.50;;;;;;5069371;28;20032;-74
2023/05/31 05:41:50;;;;;;;5.35;1.25;;;16.30;67.50;;;;;;5053693;28;20036;-75
2023/05/31 05:44:15;;;;;;;3.95;1.67;;;16.30;67.90;;;;;;5053332;28;20029;-75
2023/05/31 05:46:41;;;;;;;5.22;1.70;;;16.40;67.80;;;;;;5069388;28;20017;-77
2023/05/31 05:49:06;;;;;;;3.72;1.25;;;16.40;68.40;;;;;;5053237;28;20021;-75
2023/05/31 05:51:32;;;;;;;6.03;1.20;;;16.40;68.10;;;;;;5054188;28;20100;-75
2023/05/31 05:53:58;;;;;;;6.13;1.30;;;16.50;68.70;;;;;;5052978;28;20029;-75
2023/05/31 05:56:23;;;;;;;3.25;1.73;;;16.50;68.40;;;;;;5054450;28;20082;-75
2023/05/31 05:58:49;;;;;;;3.10;1.25;;;16.50;68.00;;;;;;5053708;28;20036;-75
2023/05/31 06:01:18;;;;;;;4.55;1.40;;;16.50;68.00;;;;;;5062660;28;20021;-75
2023/05/31 06:03:49;;;;;;;3.30;1.35;;;16.60;69.00;;;;;;5073498;28;20059;-75
2023/05/31 06:06:16;;;;;;;5.70;1.02;;;16.60;69.30;;;;;;5073534;28;20036;-75
2023/05/31 06:08:45;;;;;;;2.47;1.10;;;16.60;68.70;;;;;;5073192;28;20373;-76
2023/05/31 06:11:11;;;;;;;5.20;1.60;;;16.70;69.70;;;;;;5063157;28;20024;-75
2023/05/31 06:13:37;;;;;;;3.22;1.40;;;16.70;69.60;;;;;;5052414;28;20044;-75
2023/05/31 06:16:05;;;;;;;4.53;1.27;;;16.80;69.40;;;;;;5053185;28;20382;-76
2023/05/31 06:18:31;;;;;;;4.05;1.45;;;16.80;69.20;;;;;;5052062;28;20032;-76
2023/05/31 06:20:57;;;;;;;3.65;1.25;;;16.80;68.90;;;;;;5051820;28;20025;-75
2023/05/31 06:23:23;;;;;;;3.88;1.35;;;16.90;69.30;;;;;;5053467;28;20032;-75
2023/05/31 06:25:49;;;;;;;4.85;1.10;;;16.90;69.00;;;;;;5051268;28;20445;-76
2023/05/31 06:28:14;;;;;;;4.53;1.25;;;16.90;68.50;;;;;;5052448;28;20036;-76
2023/05/31 06:30:41;;;;;;;7.03;1.50;;;17.00;68.10;;;;;;5052736;28;20028;-75
2023/05/31 06:33:07;;;;;;;3.78;1.20;;;17.00;67.70;;;;;;5053743;28;20032;-75
2023/05/31 06:35:33;;;;;;;5.15;1.50;;;17.10;67.40;;;;;;5055825;28;20078;-76
2023/05/31 06:37:58;;;;;;;3.53;1.42;;;17.10;66.60;;;;;;5071816;28;20086;-75
2023/05/31 06:40:24;;;;;;;5.38;1.33;;;17.10;67.90;;;;;;5071767;28;20035;-75
2023/05/31 06:42:50;;;;;;;5.15;1.35;;;17.10;68.00;;;;;;5065526;28;20105;-75
2023/05/31 06:45:15;;;;;;;8.20;1.45;;;17.10;67.70;;;;;;5059468;28;20132;-75
2023/05/31 06:47:41;;;;;;;3.05;1.10;;;17.20;67.20;;;;;;5069035;28;20074;-75
2023/05/31 06:50:07;;;;;;;5.22;1.30;;;17.30;66.90;;;;;;5067817;28;20043;-75
2023/05/31 06:52:32;;;;;;;5.72;1.02;;;17.30;66.40;;;;;;5073015;28;20507;-76
2023/05/31 06:54:58;;;;;;;4.05;1.27;;;17.30;67.30;;;;;;5056800;28;20451;-75
2023/05/31 06:57:23;;;;;;;5.05;1.13;;;17.40;67.90;;;;;;5071430;28;20167;-75
2023/05/31 06:59:49;;;;;;;4.50;1.33;;;17.40;67.00;;;;;;5063254;28;20040;-75
2023/05/31 07:02:16;;;;;;;4.72;1.13;;;17.50;66.30;;;;;;5068814;28;20048;-76
2023/05/31 07:04:41;;;;;;;5.70;1.50;;;17.50;66.40;;;;;;5051092;28;20031;-75
2023/05/31 07:07:09;;;;;;;3.78;1.30;;;17.50;66.70;;;;;;5061167;28;20111;-76
2023/05/31 07:09:34;;;;;;;4.18;1.33;;;17.60;66.70;;;;;;5057103;28;20025;-76
2023/05/31 07:12:00;;;;;;;4.30;1.17;;;17.60;66.50;;;;;;5076258;28;20066;-75
2023/05/31 07:14:28;;;;;;;3.20;1.30;;;17.70;66.60;;;;;;5065311;28;20039;-75
2023/05/31 07:16:57;;;;;;;3.85;1.27;;;17.70;66.50;;;;;;5057875;28;20039;-75
2023/05/31 07:19:23;;;;;;;2.00;1.10;;;17.70;66.60;;;;;;5070617;28;20032;-75
2023/05/31 07:21:48;;;;;;;6.63;1.42;;;17.80;66.10;;;;;;5054848;28;20497;-75
2023/05/31 07:24:14;;;;;;;4.63;1.45;;;17.80;65.50;;;;;;5066978;28;20083;-75
2023/05/31 07:26:40;;;;;;;4.18;1.20;;;17.90;67.20;;;;;;5056880;28;20025;-76
2023/05/31 07:29:05;;;;;;;3.95;1.38;;;17.90;66.90;;;;;;5062005;28;20087;-77
2023/05/31 07:31:31;;;;;;;5.47;1.17;;;17.90;66.70;;;;;;5061566;28;20470;-77
2023/05/31 07:33:57;;;;;;;4.93;1.58;;;18.00;65.80;;;;;;5062396;28;20031;-75
2023/05/31 07:36:24;;;;;;;5.85;1.15;;;18.00;65.60;;;;;;5065557;28;20029;-75
2023/05/31 07:38:50;;;;;;;3.05;1.48;;;18.10;65.20;;;;;;5062866;28;20020;-76
2023/05/31 07:41:16;;;;;;;4.22;1.13;;;18.10;64.60;;;;;;5063672;28;20052;-75
2023/05/31 07:43:44;;;;;;;2.95;1.13;;;18.10;65.00;;;;;;5056549;28;20458;-75
2023/05/31 07:46:10;;;;;;;2.42;1.30;;;18.20;64.60;;;;;;5073922;28;20024;-76
2023/05/31 07:48:35;;;;;;;4.25;1.20;;;18.20;65.20;;;;;;5082780;28;20039;-77
2023/05/31 07:51:01;;;;;;;2.78;1.20;;;18.30;64.80;;;;;;5064270;28;20074;-76
2023/05/31 07:53:27;;;;;;;2.97;1.52;;;18.30;64.10;;;;;;5068614;28;20028;-75
2023/05/31 07:55:53;;;;;;;10.07;1.17;;;18.30;64.60;;;;;;5073979;28;20489;-77
2023/05/31 07:58:19;;;;;;;3.83;1.17;;;18.30;65.70;;;;;;5071153;28;20032;-74
2023/05/31 08:00:45;;;;;;;4.35;1.23;;;18.40;66.00;;;;;;5058358;28;20412;-75
2023/05/31 08:03:10;;;;;;;1.80;1.10;;;18.40;65.60;;;;;;5069739;28;20054;-75
2023/05/31 08:05:36;;;;;;;2.38;1.00;;;18.50;66.00;;;;;;5061989;28;20037;-75
2023/05/31 08:08:02;;;;;;;6.30;1.55;;;18.50;65.10;;;;;;5055774;28;20113;-75
2023/05/31 08:10:29;;;;;;;7.68;1.50;;;18.60;64.70;;;;;;5073898;28;20025;-76
2023/05/31 08:12:55;;;;;;;3.78;1.10;;;18.60;65.20;;;;;;5062074;28;20029;-76
2023/05/31 08:15:21;;;;;;;4.72;1.23;;;18.70;65.90;;;;;;5056230;28;20028;-75
2023/05/31 08:17:47;;;;;;;5.20;1.13;;;18.70;65.60;;;;;;5062626;28;20032;-76
2023/05/31 08:20:15;;;;;;;6.40;1.70;;;18.70;65.20;;;;;;5060364;28;20035;-82
2023/05/31 08:22:44;;;;;;;5.97;1.52;;;18.80;64.40;;;;;;5074797;28;20158;-76
2023/05/31 08:25:12;;;;;;;4.35;1.23;;;18.90;65.50;;;;;;5075420;28;20326;-76
2023/05/31 08:27:40;;;;;;;6.75;1.40;;;18.90;65.90;;;;;;5075498;28;20119;-76
2023/05/31 08:30:09;;;;;;;5.70;1.40;;;18.90;64.90;;;;;;5074569;28;20028;-77
2023/05/31 08:32:35;;;;;;;7.45;1.30;;;19.00;64.60;;;;;;5075379;28;20028;-76
2023/05/31 08:35:01;;;;;;;4.35;1.63;;;19.00;64.80;;;;;;5074380;28;20024;-77
2023/05/31 08:37:26;;;;;;;4.85;1.40;;;19.00;65.80;;;;;;5075129;28;20028;-76
2023/05/31 08:39:52;;;;;;;3.28;1.25;;;19.10;65.00;;;;;;5074478;28;20022;-77
2023/05/31 08:42:49;;;;;;;4.72;1.35;;;19.20;64.70;;;;;;5075845;28;20085;-76
2023/05/31 08:45:17;;;;;;;4.10;1.35;;;19.20;64.50;;;;;;5071216;28;20114;-77
2023/05/31 08:47:58;;;;;;;5.43;1.65;;;19.30;65.10;;;;;;5074559;28;20031;-76
2023/05/31 08:50:26;;;;;;;8.98;1.45;;;19.40;65.20;;;;;;5075512;28;20385;-76
2023/05/31 08:52:53;;;;;;;3.75;1.15;;;19.40;65.20;;;;;;5075468;28;20041;-77
2023/05/31 08:55:20;;;;;;;5.68;1.42;;;19.50;65.70;;;;;;5074542;28;20028;-77
2023/05/31 08:57:46;;;;;;;3.33;1.75;;;19.50;65.50;;;;;;5075386;28;20028;-76
2023/05/31 09:00:13;;;;;;;5.15;1.40;;;19.50;64.70;;;;;;5075002;28;20401;-76
2023/05/31 09:02:39;;;;;;;5.75;1.70;;;19.60;65.70;;;;;;5074023;28;20052;-76
2023/05/31 09:05:10;;;;;;;3.03;1.50;;;19.60;65.20;;;;;;5073900;28;20112;-76
2023/05/31 09:07:36;;;;;;;3.25;1.27;;;19.70;65.90;;;;;;5075477;28;20099;-76
2023/05/31 09:10:03;;;;;;;3.58;1.33;;;19.70;64.50;;;;;;5074865;28;20028;-76
2023/05/31 09:12:29;;;;;;;3.33;1.42;;;19.70;63.70;;;;;;5075004;28;20170;-76
2023/05/31 09:14:55;;;;;;;4.30;1.42;;;19.80;66.00;;;;;;5073472;28;20028;-76
2023/05/31 09:17:20;;;;;;;6.47;1.50;;;19.90;66.30;;;;;;5074668;28;20040;-76
2023/05/31 09:19:52;;;;;;;2.40;1.10;;;19.90;65.30;;;;;;5075073;28;20024;-76
2023/05/31 09:22:17;;;;;;;6.35;1.35;;;20.10;64.50;;;;;;5073506;28;20028;-76
2023/05/31 09:24:56;;;;;;;5.18;1.40;;;20.10;63.80;;;;;;5074636;28;20040;-76
2023/05/31 09:27:22;;;;;;;4.40;1.48;;;20.20;64.60;;;;;;5074849;28;20050;-76
2023/05/31 09:29:54;;;;;;;6.70;1.55;;;20.20;64.50;;;;;;5073452;28;20466;-76
2023/05/31 09:32:20;;;;;;;3.95;1.27;;;20.30;65.30;;;;;;5075072;28;20544;-76
2023/05/31 09:34:46;;;;;;;4.22;1.38;;;20.40;64.00;;;;;;5073288;28;20063;-77
2023/05/31 09:37:22;;;;;;;3.00;1.48;;;20.50;65.00;;;;;;5073162;28;20032;-76
2023/05/31 09:39:57;;;;;;;5.13;1.73;;;20.40;62.80;;;;;;5073539;28;20545;-77
2023/05/31 09:42:26;;;;;;;5.72;1.40;;;20.50;63.80;;;;;;5073419;28;20036;-76
2023/05/31 09:44:52;;;;;;;4.82;1.30;;;20.60;64.30;;;;;;5073235;28;20035;-82
2023/05/31 09:47:24;;;;;;;5.90;1.42;;;20.60;64.50;;;;;;5073206;28;20020;-76
2023/05/31 09:49:49;;;;;;;;;;;20.70;64.60;;;;;;5073676;28;20028;-76
2023/05/31 09:52:15;;;;;;;4.38;1.50;;;20.70;64.60;;;;;;5072862;28;19950;-76
2023/05/31 09:54:41;;;;;;;5.43;1.70;;;20.80;63.60;;;;;;5074216;28;20424;-77
2023/05/31 09:57:11;;;;;;;7.00;1.40;;;20.90;63.50;;;;;;5072625;28;20028;-77
2023/05/31 09:59:40;;;;;;;5.82;1.40;;;20.90;64.00;;;;;;5073917;28;20024;-77
2023/05/31 10:02:07;;;;;;;4.25;1.45;;;21.00;63.10;;;;;;5073389;28;20048;-76
2023/05/31 10:04:35;;;;;;;4.43;1.42;;;21.10;64.00;;;;;;5072566;28;20119;-77
2023/05/31 10:07:01;;;;;;;4.78;1.58;;;21.10;61.00;;;;;;5072594;28;20029;-78
2023/05/31 10:09:27;;;;;;;9.13;1.35;;;21.20;61.50;;;;;;5072885;28;20024;-76
2023/05/31 10:11:56;;;;;;;4.05;1.25;;;21.20;60.10;;;;;;5072727;28;20162;-77
2023/05/31 10:14:25;;;;;;;4.15;1.30;;;21.30;60.10;;;;;;5073866;28;20016;-77
2023/05/31 10:16:54;;;;;;;4.32;1.40;;;21.30;59.50;;;;;;5072740;28;20036;-77
2023/05/31 10:19:34;;;;;;;6.97;1.30;;;21.30;59.00;;;;;;5073023;28;20021;-76
2023/05/31 10:22:03;;;;;;;2.45;1.35;;;21.40;59.70;;;;;;5072158;28;20035;-77
2023/05/31 10:24:40;;;;;;;4.05;1.67;;;21.40;59.30;;;;;;5072701;28;20028;-77
2023/05/31 10:27:37;;;;;;;6.75;1.50;;;21.50;59.10;;;;;;5073845;28;20449;-77
2023/05/31 10:30:06;;;;;;;4.95;1.30;;;21.60;59.00;;;;;;5073447;28;20028;-77
2023/05/31 10:32:40;;;;;;;6.95;1.55;;;21.70;57.30;;;;;;5074013;28;20069;-77
2023/05/31 10:35:08;;;;;;;3.58;1.30;;;21.80;56.60;;;;;;5073477;28;20369;-76
2023/05/31 10:37:34;;;;;;;4.47;1.33;;;21.80;57.30;;;;;;5073040;28;20039;-77
2023/05/31 10:40:10;;;;;;;2.55;1.40;;;21.80;57.50;;;;;;5073448;28;20108;-77
2023/05/31 10:42:59;;;;;;;5.93;1.23;;;21.90;57.70;;;;;;5073828;28;20046;-77
2023/05/31 10:45:43;;;;;;;4.50;1.52;;;22.00;58.00;;;;;;5072893;28;20029;-76
2023/05/31 10:48:28;;;;;;;3.08;1.23;;;22.00;58.00;;;;;;5073445;28;20028;-77
2023/05/31 10:51:01;;;;;;;4.00;1.38;;;22.00;57.30;;;;;;5072457;28;20462;-76
2023/05/31 10:53:34;;;;;;;4.05;1.48;;;22.00;56.80;;;;;;5072039;28;20037;-77
2023/05/31 10:56:11;;;;;;;4.63;1.20;;;22.10;56.90;;;;;;5073053;28;20035;-77
2023/05/31 10:58:42;;;;;;;4.45;1.40;;;22.10;58.10;;;;;;5073519;28;20024;-77
2023/05/31 11:01:15;;;;;;;6.15;1.38;;;22.20;58.00;;;;;;5071730;28;20024;-77
2023/05/31 11:03:46;;;;;;;4.13;1.20;;;22.20;58.10;;;;;;5072157;28;20053;-77
2023/05/31 11:06:13;;;;;;;2.85;1.42;;;22.30;57.40;;;;;;5073325;28;20035;-77
2023/05/31 11:08:56;;;;;;;7.68;1.48;;;22.40;58.50;;;;;;5072365;28;20032;-76
2023/05/31 11:11:25;;;;;;;11.50;6.20;;;22.50;57.90;;;;;;5076683;28;20108;-77
2023/05/31 11:14:06;;;;;;;5.55;2.78;;;22.60;57.70;;;;;;5078696;28;20028;-77
2023/05/31 11:16:33;;;;;;;;;;;22.70;56.00;;;;;;5079103;28;20042;-77
2023/05/31 11:19:06;;;;;;;3.72;1.95;;;22.70;57.20;;;;;;5079696;28;19968;-81
2023/05/31 11:22:07;;;;;;;4.63;1.70;;;22.80;54.50;;;;;;5080021;28;20031;-77
2023/05/31 11:24:53;;;;;;;;;;;22.80;56.90;;;;;;5037153;28;20127;-76
2023/05/31 11:27:39;;;;;;;4.78;1.30;;;22.90;54.70;;;;;;5078379;28;19908;-76
2023/05/31 11:30:09;;;;;;;7.22;1.80;;;22.90;55.30;;;;;;5077749;28;20067;-77
2023/05/31 11:32:34;;;;;;;5.93;1.73;;;22.80;55.10;;;;;;5079632;28;20036;-76
2023/05/31 11:35:04;;;;;;;5.30;1.40;;;22.90;56.60;;;;;;5079407;28;20084;-77
2023/05/31 11:37:31;;;;;;;3.88;1.15;;;23.00;56.90;;;;;;5078475;28;20028;-76
2023/05/31 11:40:00;;;;;;;5.00;1.40;;;23.10;56.30;;;;;;5078341;28;20024;-76
2023/05/31 11:42:34;;;;;;;6.38;1.58;;;23.20;56.70;;;;;;5079369;28;20033;-77
2023/05/31 11:45:04;;;;;;;2.58;1.15;;;23.30;56.80;;;;;;5079052;28;20024;-79
2023/05/31 11:47:47;;;;;;;3.33;1.40;;;23.40;56.20;;;;;;5078080;28;20027;-77
2023/05/31 11:50:16;;;;;;;3.63;1.70;;;23.50;56.20;;;;;;5077912;28;20025;-77
2023/05/31 11:52:42;;;;;;;5.10;1.52;;;23.50;56.40;;;;;;5079589;28;20428;-76
2023/05/31 11:55:09;;;;;;;4.05;1.20;;;23.50;54.30;;;;;;5077877;28;20027;-77
2023/05/31 11:57:45;;;;;;;4.93;1.40;;;23.50;55.00;;;;;;5079895;28;20042;-77
2023/05/31 12:00:12;;;;;;;5.65;1.30;;;23.60;55.10;;;;;;5077725;28;20040;-77
2023/05/31 12:02:56;;;;;;;2.72;1.40;;;23.60;52.60;;;;;;5078135;28;20528;-76
2023/05/31 12:05:22;;;;;;;6.63;1.65;;;23.60;54.60;;;;;;5079335;28;20127;-76
2023/05/31 12:07:53;;;;;;;3.50;1.20;;;23.70;54.30;;;;;;5079398;28;20032;-76
2023/05/31 12:10:18;;;;;;;7.72;1.00;;;23.70;54.20;;;;;;5077875;28;20073;-77
2023/05/31 12:12:46;;;;;;;3.15;1.30;;;23.80;53.70;;;;;;5078047;28;20036;-77
2023/05/31 12:15:12;;;;;;;3.03;1.02;;;23.80;54.40;;;;;;5077758;28;20077;-77
2023/05/31 12:17:39;;;;;;;4.07;1.10;;;23.90;53.60;;;;;;5078387;28;20025;-76
2023/05/31 12:20:05;;;;;;;3.83;1.27;;;23.90;54.10;;;;;;5078947;28;20449;-77
2023/05/31 12:22:31;;;;;;;3.10;1.30;;;24.00;53.50;;;;;;5076557;28;20036;-76
2023/05/31 12:24:56;;;;;;;4.00;1.20;;;24.00;53.00;;;;;;5074855;28;20033;-76
2023/05/31 12:27:24;;;;;;;2.80;1.23;;;24.10;54.00;;;;;;5075524;28;20024;-77
2023/05/31 12:29:54;;;;;;;5.95;1.35;;;24.10;53.40;;;;;;5074779;28;20024;-76
2023/05/31 12:32:21;;;;;;;2.20;1.10;;;24.20;52.10;;;;;;5075620;28;20469;-76
2023/05/31 12:34:47;;;;;;;2.15;1.13;;;24.30;52.80;;;;;;5074595;28;20085;-76
2023/05/31 12:37:13;;;;;;;2.70;1.23;;;24.40;52.10;;;;;;5075476;28;20037;-77
2023/05/31 12:39:39;;;;;;;3.10;1.23;;;24.60;52.90;;;;;;5075109;28;20447;-76
2023/05/31 12:42:06;;;;;;;3.20;1.20;;;24.70;50.90;;;;;;5075022;28;20067;-78
2023/05/31 12:44:32;;;;;;;5.32;1.30;;;24.70;50.90;;;;;;5074958;28;20024;-76
2023/05/31 12:47:03;;;;;;;4.35;1.40;;;24.90;53.80;;;;;;5074481;28;20436;-76
2023/05/31 12:49:31;;;;;;;4.10;1.33;;;25.10;50.80;;;;;;5075925;28;20027;-76
2023/05/31 12:52:01;;;;;;;5.72;1.25;;;25.20;51.40;;;;;;5074175;28;20033;-76